createdAt,value
2023-05-20T00:01:34.519Z,102317.25
2023-05-20T00:04:01.435Z,102320.00
2023-05-20T00:06:28.109Z,102316.38
2023-05-20T00:08:55.714Z,102313.66
2023-05-20T00:11:22.493Z,102319.13
2023-05-20T00:13:48.991Z,102318.28
2023-05-20T00:16:15.517Z,102316.38
2023-05-20T00:18:42.009Z,102311.75
2023-05-20T00:21:08.500Z,102310.91
2023-05-20T00:23:34.967Z,102319.13
2023-05-20T00:26:01.933Z,102318.13
2023-05-20T00:28:28.487Z,102313.81
2023-05-20T00:30:55.052Z,102310.91
2023-05-20T00:33:21.655Z,102304.53
2023-05-20T00:35:48.234Z,102309.00
2023-05-20T00:38:14.775Z,102307.13
2023-05-20T00:40:41.310Z,102302.50
2023-05-20T00:43:09.994Z,102308.84
2023-05-20T00:45:37.930Z,102298.72
2023-05-20T00:48:06.063Z,102312.47
2023-05-20T00:50:32.712Z,102305.06
2023-05-20T00:52:59.421Z,102300.63
2023-05-20T00:55:26.300Z,102301.47
2023-05-20T00:57:53.916Z,102301.47
2023-05-20T01:00:20.530Z,102300.63
2023-05-20T01:02:47.201Z,102298.72
2023-05-20T01:05:13.870Z,102302.50
2023-05-20T01:07:40.990Z,102302.50
2023-05-20T01:10:08.298Z,102297.00
2023-05-20T01:12:37.404Z,102297.00
2023-05-20T01:15:09.648Z,102298.72
2023-05-20T01:17:40.064Z,102301.47
2023-05-20T01:20:10.258Z,102291.50
2023-05-20T01:22:38.483Z,102295.13
2023-05-20T01:25:05.606Z,102295.13
2023-05-20T01:27:32.228Z,102293.41
2023-05-20T01:29:59.586Z,102296.16
2023-05-20T01:32:32.652Z,102298.72
2023-05-20T01:35:00.215Z,102292.53
2023-05-20T01:37:28.209Z,102287.03
2023-05-20T01:39:55.080Z,102286.19
2023-05-20T01:42:23.001Z,102282.41
2023-05-20T01:44:49.665Z,102285.16
2023-05-20T01:47:16.225Z,102285.16
2023-05-20T01:49:42.770Z,102287.03
2023-05-20T01:52:09.333Z,102283.44
2023-05-20T01:54:36.310Z,102284.31
2023-05-20T01:57:03.044Z,102280.69
2023-05-20T01:59:29.933Z,102273.31
2023-05-20T02:01:56.538Z,102277.94
2023-05-20T02:04:23.136Z,102279.84
2023-05-20T02:06:49.824Z,102277.94
2023-05-20T02:09:18.432Z,102277.09
2023-05-20T02:11:44.973Z,102277.09
2023-05-20T02:14:11.638Z,102271.75
2023-05-20T02:16:38.296Z,102273.47
2023-05-20T02:19:04.903Z,102266.28
2023-05-20T02:21:31.618Z,102275.53
2023-05-20T02:23:58.191Z,102264.38
2023-05-20T02:26:26.396Z,102265.41
2023-05-20T02:28:52.963Z,102263.69
2023-05-20T02:31:21.588Z,102258.19
2023-05-20T02:33:48.195Z,102256.47
2023-05-20T02:36:15.190Z,102266.44
2023-05-20T02:38:41.732Z,102254.59
2023-05-20T02:41:10.760Z,102259.22
2023-05-20T02:43:37.497Z,102270.03
2023-05-20T02:46:04.073Z,102265.56
2023-05-20T02:48:30.703Z,102270.19
2023-05-20T02:50:57.329Z,102267.47
2023-05-20T02:53:23.895Z,102271.06
2023-05-20T02:55:50.551Z,102271.06
2023-05-20T02:58:17.574Z,102262.81
2023-05-20T03:00:44.683Z,102265.75
2023-05-20T03:03:11.417Z,102257.50
2023-05-20T03:05:38.206Z,102255.63
2023-05-20T03:08:10.283Z,102252.88
2023-05-20T03:10:37.716Z,102251.16
2023-05-20T03:13:09.412Z,102245.50
2023-05-20T03:15:41.282Z,102247.53
2023-05-20T03:18:08.637Z,102253.91
2023-05-20T03:20:40.129Z,102253.03
2023-05-20T03:23:07.791Z,102268.66
2023-05-20T03:25:37.632Z,102261.44
2023-05-20T03:28:04.638Z,102265.03
2023-05-20T03:30:31.528Z,102262.28
2023-05-20T03:32:59.199Z,102265.03
2023-05-20T03:35:26.596Z,102262.28
2023-05-20T03:37:53.402Z,102261.28
2023-05-20T03:40:22.379Z,102260.41
2023-05-20T03:42:50.897Z,102265.03
2023-05-20T03:45:19.042Z,102258.69
2023-05-20T03:47:56.142Z,102260.56
2023-05-20T03:50:22.756Z,102254.22
2023-05-20T03:52:49.357Z,102256.09
2023-05-20T03:55:20.478Z,102258.84
2023-05-20T03:57:47.427Z,102259.88
2023-05-20T04:00:14.842Z,102258.00
2023-05-20T04:02:44.480Z,102259.88
2023-05-20T04:05:14.191Z,102258.00
2023-05-20T04:07:41.729Z,102250.78
2023-05-20T04:10:09.488Z,102248.03
2023-05-20T04:12:38.246Z,102254.38
2023-05-20T04:15:06.739Z,102256.28
2023-05-20T04:17:43.677Z,102250.91
2023-05-20T04:20:11.368Z,102251.78
2023-05-20T04:22:39.690Z,102254.69
2023-05-20T04:25:06.966Z,102263.66
2023-05-20T04:27:33.948Z,102263.66
2023-05-20T04:30:02.300Z,102261.91
2023-05-20T04:32:34.499Z,102258.28
2023-05-20T04:35:02.230Z,102266.53
2023-05-20T04:37:32.122Z,102268.41
2023-05-20T04:39:58.735Z,102271.16
2023-05-20T04:42:25.810Z,102271.00
2023-05-20T04:44:52.811Z,102262.75
2023-05-20T04:47:19.374Z,102262.75
2023-05-20T04:49:45.956Z,102259.16
2023-05-20T04:52:12.535Z,102265.66
2023-05-20T04:54:40.264Z,102257.44
2023-05-20T04:57:07.177Z,102255.53
2023-05-20T04:59:33.707Z,102261.91
2023-05-20T05:02:00.505Z,102253.66
2023-05-20T05:04:27.185Z,102254.53
2023-05-20T05:06:54.055Z,102253.66
2023-05-20T05:09:21.004Z,102253.66
2023-05-20T05:11:47.708Z,102259.16
2023-05-20T05:14:14.418Z,102250.91
2023-05-20T05:16:41.077Z,102253.66
2023-05-20T05:19:09.240Z,102249.03
2023-05-20T05:21:38.517Z,102254.53
2023-05-20T05:24:05.263Z,102245.44
2023-05-20T05:26:31.856Z,102247.31
2023-05-20T05:28:58.400Z,102258.16
2023-05-20T05:31:25.007Z,102253.66
2023-05-20T05:33:51.609Z,102255.53
2023-05-20T05:36:18.253Z,102242.69
2023-05-20T05:38:45.067Z,102250.91
2023-05-20T05:41:11.956Z,102245.44
2023-05-20T05:43:38.578Z,102247.19
2023-05-20T05:46:06.689Z,102256.28
2023-05-20T05:48:33.566Z,102251.78
2023-05-20T05:51:00.483Z,102259.03
2023-05-20T05:53:27.330Z,102256.28
2023-05-20T05:55:54.120Z,102250.78
2023-05-20T05:58:20.925Z,102251.66
2023-05-20T06:00:47.468Z,102248.91
2023-05-20T06:03:14.164Z,102253.38
2023-05-20T06:05:40.901Z,102238.78
2023-05-20T06:08:07.530Z,102246.00
2023-05-20T06:10:35.776Z,102244.97
2023-05-20T06:13:02.331Z,102244.09
2023-05-20T06:15:30.777Z,102235.88
2023-05-20T06:17:57.417Z,102242.22
2023-05-20T06:20:25.434Z,102243.06
2023-05-20T06:22:52.148Z,102229.34
2023-05-20T06:25:19.421Z,102238.44
2023-05-20T06:27:46.076Z,102227.47
2023-05-20T06:30:16.914Z,102232.09
2023-05-20T06:32:43.827Z,102216.47
2023-05-20T06:35:11.361Z,102219.22
2023-05-20T06:37:37.958Z,102217.34
2023-05-20T06:40:05.549Z,102215.63
2023-05-20T06:42:32.074Z,102209.09
2023-05-20T06:45:06.309Z,102207.38
2023-05-20T06:47:47.960Z,102209.97
2023-05-20T06:50:14.800Z,102208.25
2023-05-20T06:52:41.345Z,102199.16
2023-05-20T06:55:08.305Z,102207.22
2023-05-20T06:57:35.420Z,102193.50
2023-05-20T07:00:03.732Z,102209.78
2023-05-20T07:02:33.274Z,102208.06
2023-05-20T07:04:59.843Z,102198.81
2023-05-20T07:07:26.397Z,102199.66
2023-05-20T07:09:53.104Z,102192.47
2023-05-20T07:12:19.929Z,102196.06
2023-05-20T07:14:46.445Z,102196.06
2023-05-20T07:17:12.990Z,102205.16
2023-05-20T07:19:39.931Z,102196.94
2023-05-20T07:22:06.595Z,102197.78
2023-05-20T07:24:48.073Z,102188.69
2023-05-20T07:27:14.706Z,102190.41
2023-05-20T07:29:41.269Z,102185.78
2023-05-20T07:32:09.656Z,102182.88
2023-05-20T07:34:37.836Z,102182.00
2023-05-20T07:37:04.520Z,102182.00
2023-05-20T07:39:31.786Z,102179.25
2023-05-20T07:41:59.053Z,102176.50
2023-05-20T07:44:26.658Z,102171.88
2023-05-20T07:46:55.759Z,102157.97
2023-05-20T07:49:22.615Z,102161.75
2023-05-20T07:51:49.378Z,102168.97
2023-05-20T07:54:16.412Z,102164.34
2023-05-20T07:56:46.316Z,102161.59
2023-05-20T07:59:13.778Z,102167.94
2023-05-20T08:01:44.198Z,102165.19
2023-05-20T08:04:13.279Z,102166.91
2023-05-20T08:06:41.350Z,102156.78
2023-05-20T08:09:11.691Z,102163.13
2023-05-20T08:11:45.801Z,102160.41
2023-05-20T08:14:14.156Z,102165.03
2023-05-20T08:16:43.818Z,102152.16
2023-05-20T08:19:10.792Z,102158.50
2023-05-20T08:21:37.519Z,102149.25
2023-05-20T08:24:04.756Z,102158.34
2023-05-20T08:26:31.998Z,102158.34
2023-05-20T08:28:58.651Z,102151.81
2023-05-20T08:31:25.196Z,102160.06
2023-05-20T08:33:52.014Z,102151.81
2023-05-20T08:36:19.446Z,102140.84
2023-05-20T08:38:46.174Z,102163.66
2023-05-20T08:41:12.817Z,102150.78
2023-05-20T08:43:42.632Z,102154.41
2023-05-20T08:46:09.822Z,102145.31
2023-05-20T08:48:37.030Z,102147.00
2023-05-20T08:51:04.267Z,102130.53
2023-05-20T08:53:30.985Z,102136.03
2023-05-20T08:56:03.807Z,102129.50
2023-05-20T08:58:33.637Z,102124.19
2023-05-20T09:01:00.256Z,102129.50
2023-05-20T09:03:27.018Z,102135.88
2023-05-20T09:05:54.269Z,102124.03
2023-05-20T09:08:28.028Z,102134.84
2023-05-20T09:10:54.699Z,102125.75
2023-05-20T09:13:23.713Z,102124.88
2023-05-20T09:15:50.703Z,102122.13
2023-05-20T09:18:17.363Z,102117.50
2023-05-20T09:20:47.356Z,102121.97
2023-05-20T09:23:13.966Z,102115.63
2023-05-20T09:25:40.644Z,102112.00
2023-05-20T09:28:08.808Z,102109.09
2023-05-20T09:30:35.692Z,102109.94
2023-05-20T09:33:05.010Z,102107.19
2023-05-20T09:35:35.755Z,102114.59
2023-05-20T09:38:04.902Z,102119.03
2023-05-20T09:40:31.659Z,102115.44
2023-05-20T09:43:07.917Z,102099.81
2023-05-20T09:45:35.557Z,102103.44
2023-05-20T09:48:03.352Z,102117.16
2023-05-20T09:50:31.669Z,102117.16
2023-05-20T09:53:03.046Z,102117.03
2023-05-20T09:55:30.887Z,102106.03
2023-05-20T09:58:01.851Z,102109.81
2023-05-20T10:00:28.771Z,102109.81
2023-05-20T10:02:55.767Z,102107.91
2023-05-20T10:05:30.154Z,102101.41
2023-05-20T10:08:29.392Z,102096.78
2023-05-20T10:11:11.184Z,102099.69
2023-05-20T10:14:02.760Z,102084.19
2023-05-20T10:16:58.013Z,102084.19
2023-05-20T10:19:27.784Z,102084.38
2023-05-20T10:22:00.342Z,102082.47
2023-05-20T10:24:38.253Z,102083.22
2023-05-20T10:27:09.834Z,102078.72
2023-05-20T10:29:50.683Z,102066.72
2023-05-20T10:32:34.342Z,102073.94
2023-05-20T10:35:05.017Z,102065.88
2023-05-20T10:37:44.183Z,102069.31
2023-05-20T10:40:13.527Z,102067.59
2023-05-20T10:42:41.322Z,102058.47
2023-05-20T10:45:09.049Z,102058.31
2023-05-20T10:47:36.877Z,102065.53
2023-05-20T10:50:07.832Z,102058.31
2023-05-20T10:52:38.360Z,102065.34
2023-05-20T10:55:05.576Z,102060.88
2023-05-20T10:57:32.406Z,102055.41
2023-05-20T11:00:00.904Z,102064.50
2023-05-20T11:02:28.762Z,102063.47
2023-05-20T11:04:59.084Z,102055.06
2023-05-20T11:07:30.756Z,102066.03
2023-05-20T11:10:00.883Z,102050.59
2023-05-20T11:12:28.289Z,102055.06
2023-05-20T11:14:55.269Z,102044.06
2023-05-20T11:17:21.949Z,102040.28
2023-05-20T11:19:49.033Z,102035.66
2023-05-20T11:22:15.682Z,102036.50
2023-05-20T11:24:42.421Z,102031.03
2023-05-20T11:27:09.459Z,102031.88
2023-05-20T11:29:36.412Z,102026.38
2023-05-20T11:32:03.381Z,102030.00
2023-05-20T11:34:37.304Z,102033.41
2023-05-20T11:37:08.728Z,102031.69
2023-05-20T11:39:35.445Z,102029.13
2023-05-20T11:42:03.467Z,102028.97
2023-05-20T11:44:30.498Z,102033.41
2023-05-20T11:47:01.882Z,102026.91
2023-05-20T11:49:29.256Z,102036.16
2023-05-20T11:51:57.079Z,102022.25
2023-05-20T11:54:24.411Z,102021.41
2023-05-20T11:56:51.700Z,102017.63
2023-05-20T11:59:18.505Z,102019.50
2023-05-20T12:01:45.787Z,102018.47
2023-05-20T12:04:14.860Z,102014.88
2023-05-20T12:06:43.060Z,102011.09
2023-05-20T12:09:11.121Z,102007.50
2023-05-20T12:11:40.770Z,102011.97
2023-05-20T12:14:08.587Z,102006.47
2023-05-20T12:16:36.577Z,102001.81
2023-05-20T12:19:03.869Z,102004.56
2023-05-20T12:21:31.472Z,102007.16
2023-05-20T12:23:59.912Z,102006.13
2023-05-20T12:26:28.446Z,102004.56
2023-05-20T12:28:55.370Z,101997.19
2023-05-20T12:31:22.344Z,101998.72
2023-05-20T12:33:49.051Z,101984.13
2023-05-20T12:36:15.720Z,101983.97
2023-05-20T12:38:42.541Z,101988.44
2023-05-20T12:41:09.277Z,101994.94
2023-05-20T12:43:37.493Z,101997.53
2023-05-20T12:46:05.100Z,101991.19
2023-05-20T12:48:32.029Z,101989.28
2023-05-20T12:50:58.765Z,101990.16
2023-05-20T12:53:25.564Z,101995.63
2023-05-20T12:55:52.455Z,102013.84
2023-05-20T12:58:19.181Z,102008.34
2023-05-20T13:00:46.098Z,102008.34
2023-05-20T13:03:12.817Z,102004.38
2023-05-20T13:05:39.450Z,101991.69
2023-05-20T13:08:06.330Z,101998.91
2023-05-20T13:10:43.962Z,102001.63
2023-05-20T13:13:10.506Z,101988.94
2023-05-20T13:15:37.102Z,101994.25
2023-05-20T13:18:06.282Z,101994.25
2023-05-20T13:20:33.000Z,101990.47
2023-05-20T13:22:59.647Z,101993.22
2023-05-20T13:25:26.410Z,101983.09
2023-05-20T13:27:52.975Z,101980.34
2023-05-20T13:30:19.511Z,101975.72
2023-05-20T13:32:46.338Z,101987.56
2023-05-20T13:35:13.182Z,101975.72
2023-05-20T13:37:39.811Z,101975.53
2023-05-20T13:40:07.236Z,101964.53
2023-05-20T13:42:33.813Z,101966.44
2023-05-20T13:45:00.465Z,101959.91
2023-05-20T13:47:27.021Z,101959.91
2023-05-20T13:49:53.570Z,101939.81
2023-05-20T13:52:20.141Z,101937.06
2023-05-20T13:54:48.672Z,101935.19
2023-05-20T13:57:16.094Z,101939.81
2023-05-20T13:59:42.741Z,101931.75
2023-05-20T14:02:09.328Z,101940.84
2023-05-20T14:04:38.203Z,101921.78
2023-05-20T14:07:09.876Z,101930.88
2023-05-20T14:09:36.881Z,101932.94
2023-05-20T14:12:04.295Z,101912.88
2023-05-20T14:14:30.902Z,101903.59
2023-05-20T14:16:57.572Z,101913.72
2023-05-20T14:19:24.102Z,101909.94
2023-05-20T14:21:50.694Z,101913.53
2023-05-20T14:24:17.257Z,101910.81
2023-05-20T14:26:43.818Z,101902.56
2023-05-20T14:29:10.486Z,101903.41
2023-05-20T14:31:39.257Z,101894.31
2023-05-20T14:34:05.981Z,101889.69
2023-05-20T14:36:32.632Z,101886.94
2023-05-20T14:38:59.187Z,101890.53
2023-05-20T14:41:26.013Z,101886.75
2023-05-20T14:43:52.538Z,101890.34
2023-05-20T14:46:19.104Z,101884.50
2023-05-20T14:54:30.711Z,101876.88
2023-05-20T14:56:57.244Z,101878.59
2023-05-20T14:59:23.820Z,101874.31
2023-05-20T15:01:50.434Z,101868.78
2023-05-20T15:04:16.992Z,101873.25
2023-05-20T15:06:43.849Z,101868.78
2023-05-20T15:09:10.392Z,101857.94
2023-05-20T15:11:36.977Z,101858.94
2023-05-20T15:14:03.533Z,101856.53
2023-05-20T15:16:30.117Z,101854.09
2023-05-20T15:18:56.738Z,101851.69
2023-05-20T15:21:23.450Z,101841.19
2023-05-20T15:23:49.965Z,101856.31
2023-05-20T15:26:16.594Z,101844.97
2023-05-20T15:28:43.137Z,101858.16
2023-05-20T15:31:09.716Z,101856.09
2023-05-20T15:33:36.423Z,101861.41
2023-05-20T15:36:03.528Z,101854.69
2023-05-20T15:38:30.046Z,101849.00
2023-05-20T15:40:56.548Z,101848.84
2023-05-20T15:43:23.083Z,101842.97
2023-05-20T15:45:49.695Z,101840.03
2023-05-20T15:48:16.480Z,101839.69
2023-05-20T15:50:43.054Z,101826.78
2023-05-20T15:53:09.646Z,101835.72
2023-05-20T15:55:36.238Z,101833.66
2023-05-20T15:58:02.747Z,101827.13
2023-05-20T16:00:29.302Z,101834.34
2023-05-20T16:02:56.693Z,101836.06
2023-05-20T16:05:26.433Z,101836.91
2023-05-20T16:07:57.001Z,101838.63
2023-05-20T16:10:25.912Z,101838.44
2023-05-20T16:12:52.826Z,101828.47
2023-05-20T16:15:19.502Z,101828.97
2023-05-20T16:17:46.064Z,101837.03
2023-05-20T16:20:12.643Z,101830.50
2023-05-20T16:22:39.896Z,101826.72
2023-05-20T16:25:06.625Z,101832.88
2023-05-20T16:27:33.450Z,101821.72
2023-05-20T16:30:00.241Z,101831.66
2023-05-20T16:32:27.128Z,101825.97
2023-05-20T16:34:54.765Z,101826.66
2023-05-20T16:37:21.438Z,101825.63
2023-05-20T16:39:47.949Z,101830.09
2023-05-20T16:42:14.541Z,101830.94
2023-05-20T16:44:41.339Z,101822.69
2023-05-20T16:47:09.005Z,101829.03
2023-05-20T16:49:36.043Z,101826.09
2023-05-20T16:52:03.935Z,101825.06
2023-05-20T16:54:30.876Z,101829.72
2023-05-20T16:56:57.393Z,101839.69
2023-05-20T16:59:25.768Z,101833.31
2023-05-20T17:01:52.307Z,101840.53
2023-05-20T17:04:18.890Z,101836.75
2023-05-20T17:06:45.431Z,101842.06
2023-05-20T17:09:12.213Z,101841.03
2023-05-20T17:11:38.785Z,101837.91
2023-05-20T17:14:05.348Z,101836.88
2023-05-20T17:16:32.071Z,101835.50
2023-05-20T17:21:25.413Z,101841.22
2023-05-20T17:23:51.983Z,101837.00
2023-05-20T17:26:18.493Z,101844.38
2023-05-20T17:28:45.050Z,101853.59
2023-05-20T17:31:11.913Z,101859.69
2023-05-20T17:33:38.958Z,101864.41
2023-05-20T17:36:06.119Z,101865.47
2023-05-20T17:38:32.658Z,101863.75
2023-05-20T17:40:59.341Z,101858.13
2023-05-20T17:43:26.108Z,101866.13
2023-05-20T17:45:52.672Z,101868.53
2023-05-20T17:48:19.517Z,101865.69
2023-05-20T17:50:46.120Z,101870.81
2023-05-20T17:53:12.713Z,101869.19
2023-05-20T17:55:39.726Z,101877.91
2023-05-20T17:58:07.227Z,101878.19
2023-05-20T18:00:42.067Z,101884.66
2023-05-20T18:03:09.809Z,101879.22
2023-05-20T18:05:36.556Z,101875.31
2023-05-20T18:08:03.450Z,101886.91
2023-05-20T18:10:30.043Z,101873.84
2023-05-20T18:12:56.583Z,101872.50
2023-05-20T18:15:23.133Z,101879.44
2023-05-20T18:18:14.625Z,101875.34
2023-05-20T18:20:41.284Z,101872.28
2023-05-20T18:23:07.802Z,101861.66
2023-05-20T18:25:34.325Z,101863.75
2023-05-20T18:28:01.597Z,101863.91
2023-05-20T18:30:28.246Z,101858.78
2023-05-20T18:32:55.928Z,101860.69
2023-05-20T18:35:22.679Z,101857.22
2023-05-20T18:37:49.372Z,101854.66
2023-05-20T18:40:16.126Z,101862.06
2023-05-20T18:42:42.690Z,101861.41
2023-05-20T18:45:09.643Z,101861.59
2023-05-20T18:47:36.548Z,101863.66
2023-05-20T18:50:03.575Z,101865.56
2023-05-20T18:52:30.163Z,101867.66
2023-05-20T18:54:56.770Z,101872.47
2023-05-20T18:57:23.341Z,101874.56
2023-05-20T18:59:49.857Z,101866.47
2023-05-20T19:02:17.448Z,101872.16
2023-05-20T19:04:44.076Z,101867.72
2023-05-20T19:07:11.593Z,101862.56
2023-05-20T19:09:38.184Z,101865.50
2023-05-20T19:12:05.888Z,101866.56
2023-05-20T19:14:32.455Z,101874.13
2023-05-20T19:17:00.956Z,101877.06
2023-05-20T19:19:27.779Z,101875.53
2023-05-20T19:21:54.617Z,101879.50
2023-05-20T19:24:21.220Z,101880.69
2023-05-20T19:26:47.759Z,101882.78
2023-05-20T19:29:15.412Z,101882.97
2023-05-20T19:31:43.154Z,101880.41
2023-05-20T19:34:10.118Z,101874.22
2023-05-20T19:36:38.242Z,101881.63
2023-05-20T19:39:05.187Z,101883.69
2023-05-20T19:41:31.780Z,101883.88
2023-05-20T19:43:58.304Z,101886.81
2023-05-20T19:46:24.993Z,101885.94
2023-05-20T19:48:51.578Z,101880.63
2023-05-20T19:51:18.194Z,101895.25
2023-05-20T19:53:44.736Z,101888.88
2023-05-20T19:56:12.587Z,101891.63
2023-05-20T19:58:39.137Z,101885.47
2023-05-20T20:01:06.663Z,101888.38
2023-05-20T20:03:34.054Z,101887.53
2023-05-20T20:06:00.733Z,101895.78
2023-05-20T20:08:27.344Z,101889.59
2023-05-20T20:10:53.887Z,101883.25
2023-05-20T20:13:20.451Z,101887.91
2023-05-20T20:15:47.061Z,101897.19
2023-05-20T20:18:13.716Z,101890.81
2023-05-20T20:20:40.677Z,101882.75
2023-05-20T20:23:08.422Z,101894.63
2023-05-20T20:25:38.930Z,101899.25
2023-05-20T20:28:06.856Z,101893.94
2023-05-20T20:30:34.041Z,101887.59
2023-05-20T20:33:01.659Z,101883.13
2023-05-20T20:35:28.261Z,101891.38
2023-05-20T20:37:54.733Z,101880.56
2023-05-20T20:40:25.511Z,101884.16
2023-05-20T20:42:54.701Z,101885.19
2023-05-20T20:45:22.806Z,101885.38
2023-05-20T20:47:54.662Z,101886.22
2023-05-20T20:50:21.679Z,101882.81
2023-05-20T20:52:48.202Z,101890.19
2023-05-20T20:55:14.822Z,101883.84
2023-05-20T20:57:41.950Z,101885.72
2023-05-20T21:00:20.907Z,101884.88
2023-05-20T21:02:48.135Z,101881.44
2023-05-20T21:05:18.256Z,101888.84
2023-05-20T21:07:50.124Z,101880.59
2023-05-20T21:10:20.638Z,101887.97
2023-05-20T21:12:47.322Z,101875.25
2023-05-20T21:15:14.985Z,101874.22
2023-05-20T21:17:41.827Z,101874.38
2023-05-20T21:20:08.849Z,101874.38
2023-05-20T21:22:35.535Z,101873.53
2023-05-20T21:25:02.052Z,101876.28
2023-05-20T21:27:28.609Z,101872.69
2023-05-20T21:29:55.098Z,101865.47
2023-05-20T21:32:21.604Z,101865.47
2023-05-20T21:34:48.236Z,101864.59
2023-05-20T21:37:14.858Z,101867.34
2023-05-20T21:39:41.804Z,101859.09
2023-05-20T21:42:08.410Z,101853.59
2023-05-20T21:44:35.000Z,101848.13
2023-05-20T21:47:01.614Z,101844.69
2023-05-20T21:49:28.106Z,101847.25
2023-05-20T21:51:54.591Z,101846.41
2023-05-20T21:54:21.120Z,101847.44
2023-05-20T21:56:47.727Z,101842.78
2023-05-20T21:59:14.801Z,101851.03
2023-05-20T22:01:41.370Z,101848.47
2023-05-20T22:04:08.079Z,101851.22
2023-05-20T22:06:36.018Z,101843.84
2023-05-20T22:09:03.467Z,101849.31
2023-05-20T22:11:30.260Z,101848.47
2023-05-20T22:13:57.217Z,101851.22
2023-05-20T22:16:24.747Z,101844.00
2023-05-20T22:18:53.804Z,101843.16
2023-05-20T22:21:21.615Z,101842.31
2023-05-20T22:23:48.385Z,101845.06
2023-05-20T22:26:14.982Z,101844.19
2023-05-20T22:28:41.709Z,101845.06
2023-05-20T22:31:08.408Z,101843.34
2023-05-20T22:33:34.929Z,101837.84
2023-05-20T22:36:01.436Z,101835.09
2023-05-20T22:38:29.743Z,101831.47
2023-05-20T22:40:56.451Z,101833.38
2023-05-20T22:43:23.783Z,101831.47
2023-05-20T22:45:50.453Z,101825.13
2023-05-20T22:48:16.959Z,101819.63
2023-05-20T22:50:43.450Z,101819.63
2023-05-20T22:53:09.973Z,101825.13
2023-05-20T22:55:38.751Z,101821.53
2023-05-20T22:58:05.297Z,101815.16
2023-05-20T23:00:32.148Z,101806.94
2023-05-20T23:02:58.894Z,101805.03
2023-05-20T23:05:25.696Z,101806.06
2023-05-20T23:07:55.047Z,101804.19
2023-05-20T23:10:21.809Z,101793.19
2023-05-20T23:12:48.310Z,101798.69
2023-05-20T23:15:14.888Z,101798.69
2023-05-20T23:17:41.591Z,101794.22
2023-05-20T23:20:10.865Z,101795.94
2023-05-20T23:22:38.255Z,101794.22
2023-05-20T23:25:05.700Z,101789.56
2023-05-20T23:27:32.628Z,101793.34
2023-05-20T23:29:59.290Z,101794.22
2023-05-20T23:32:26.300Z,101788.91
2023-05-20T23:34:53.401Z,101791.47
2023-05-20T23:37:20.160Z,101787.88
2023-05-20T23:39:47.186Z,101783.22
2023-05-20T23:42:13.884Z,101781.50
2023-05-20T23:44:40.444Z,101773.44
2023-05-20T23:47:07.707Z,101768.81
2023-05-20T23:49:34.755Z,101769.66
2023-05-20T23:52:01.559Z,101778.94
2023-05-20T23:54:28.072Z,101779.78
2023-05-20T23:56:55.467Z,101778.94
2023-05-20T23:59:22.209Z,101769.84
